sensor_id;sensor_type;location;lat;lon;timestamp;P1;durP1;ratioP1;P2;durP2;ratioP2
47009;SDS011;59230;54.164;-3.124;2023-02-14T00:01:10;133.43;;;54.67;;
47009;SDS011;59230;54.164;-3.124;2023-02-14T00:03:37;130.00;;;52.25;;
47009;SDS011;59230;54.164;-3.124;2023-02-14T00:06:09;131.75;;;53.22;;
47009;SDS011;59230;54.164;-3.124;2023-02-14T00:08:37;134.95;;;52.78;;
47009;SDS011;59230;54.164;-3.124;2023-02-14T00:11:04;131.00;;;53.40;;
47009;SDS011;59230;54.164;-3.124;2023-02-14T00:13:30;133.32;;;51.60;;
47009;SDS011;59230;54.164;-3.124;2023-02-14T00:15:56;138.07;;;52.30;;
47009;SDS011;59230;54.164;-3.124;2023-02-14T00:18:21;142.07;;;57.15;;
47009;SDS011;59230;54.164;-3.124;2023-02-14T00:21:07;145.73;;;54.85;;
47009;SDS011;59230;54.164;-3.124;2023-02-14T00:23:32;139.18;;;52.78;;
47009;SDS011;59230;54.164;-3.124;2023-02-14T00:25:58;134.60;;;54.28;;
47009;SDS011;59230;54.164;-3.124;2023-02-14T00:28:23;127.93;;;52.22;;
47009;SDS011;59230;54.164;-3.124;2023-02-14T00:30:50;143.02;;;52.60;;
47009;SDS011;59230;54.164;-3.124;2023-02-14T00:33:16;144.25;;;56.97;;
47009;SDS011;59230;54.164;-3.124;2023-02-14T00:35:41;147.65;;;54.30;;
47009;SDS011;59230;54.164;-3.124;2023-02-14T00:38:08;137.93;;;55.42;;
47009;SDS011;59230;54.164;-3.124;2023-02-14T00:40:36;139.18;;;54.33;;
47009;SDS011;59230;54.164;-3.124;2023-02-14T00:43:03;145.57;;;55.80;;
47009;SDS011;59230;54.164;-3.124;2023-02-14T00:45:30;140.98;;;54.25;;
47009;SDS011;59230;54.164;-3.124;2023-02-14T00:47:56;135.45;;;53.28;;
47009;SDS011;59230;54.164;-3.124;2023-02-14T00:50:23;140.48;;;54.88;;
47009;SDS011;59230;54.164;-3.124;2023-02-14T00:52:49;135.45;;;53.45;;
47009;SDS011;59230;54.164;-3.124;2023-02-14T00:55:15;146.55;;;54.47;;
47009;SDS011;59230;54.164;-3.124;2023-02-14T00:57:41;143.40;;;54.30;;
47009;SDS011;59230;54.164;-3.124;2023-02-14T01:00:07;143.88;;;56.00;;
47009;SDS011;59230;54.164;-3.124;2023-02-14T01:02:33;149.55;;;55.58;;
47009;SDS011;59230;54.164;-3.124;2023-02-14T01:04:59;139.93;;;55.38;;
47009;SDS011;59230;54.164;-3.124;2023-02-14T01:07:26;151.55;;;55.47;;
47009;SDS011;59230;54.164;-3.124;2023-02-14T01:09:52;153.13;;;56.00;;
47009;SDS011;59230;54.164;-3.124;2023-02-14T01:12:19;144.88;;;56.60;;
47009;SDS011;59230;54.164;-3.124;2023-02-14T01:14:46;143.93;;;55.63;;
47009;SDS011;59230;54.164;-3.124;2023-02-14T01:17:12;149.68;;;55.33;;
47009;SDS011;59230;54.164;-3.124;2023-02-14T01:19:40;153.48;;;54.58;;
47009;SDS011;59230;54.164;-3.124;2023-02-14T01:22:06;143.02;;;52.95;;
47009;SDS011;59230;54.164;-3.124;2023-02-14T01:24:32;163.18;;;54.53;;
47009;SDS011;59230;54.164;-3.124;2023-02-14T01:26:58;160.95;;;57.30;;
47009;SDS011;59230;54.164;-3.124;2023-02-14T01:29:24;146.55;;;55.50;;
47009;SDS011;59230;54.164;-3.124;2023-02-14T01:34:44;161.13;;;56.42;;
47009;SDS011;59230;54.164;-3.124;2023-02-14T01:37:11;152.38;;;54.38;;
47009;SDS011;59230;54.164;-3.124;2023-02-14T01:39:38;158.63;;;55.85;;
47009;SDS011;59230;54.164;-3.124;2023-02-14T01:42:04;150.13;;;54.08;;
47009;SDS011;59230;54.164;-3.124;2023-02-14T01:46:59;142.93;;;53.45;;
47009;SDS011;59230;54.164;-3.124;2023-02-14T01:49:31;172.70;;;57.95;;
47009;SDS011;59230;54.164;-3.124;2023-02-14T01:52:00;163.65;;;56.42;;
47009;SDS011;59230;54.164;-3.124;2023-02-14T01:54:33;158.07;;;54.47;;
47009;SDS011;59230;54.164;-3.124;2023-02-14T01:57:04;161.38;;;56.47;;
47009;SDS011;59230;54.164;-3.124;2023-02-14T01:59:36;167.20;;;57.10;;
47009;SDS011;59230;54.164;-3.124;2023-02-14T02:02:05;166.95;;;58.28;;
47009;SDS011;59230;54.164;-3.124;2023-02-14T02:04:32;151.82;;;54.15;;
47009;SDS011;59230;54.164;-3.124;2023-02-14T02:07:08;168.82;;;57.45;;
47009;SDS011;59230;54.164;-3.124;2023-02-14T02:09:45;171.80;;;57.65;;
47009;SDS011;59230;54.164;-3.124;2023-02-14T02:12:14;171.68;;;57.20;;
47009;SDS011;59230;54.164;-3.124;2023-02-14T02:14:41;168.02;;;57.72;;
47009;SDS011;59230;54.164;-3.124;2023-02-14T02:22:54;166.48;;;57.78;;
47009;SDS011;59230;54.164;-3.124;2023-02-14T02:46:09;180.43;;;58.15;;
47009;SDS011;59230;54.164;-3.124;2023-02-14T02:51:52;168.25;;;58.60;;
47009;SDS011;59230;54.164;-3.124;2023-02-14T02:54:43;161.30;;;55.35;;
47009;SDS011;59230;54.164;-3.124;2023-02-14T02:57:17;167.98;;;54.00;;
47009;SDS011;59230;54.164;-3.124;2023-02-14T02:59:57;181.90;;;55.40;;
47009;SDS011;59230;54.164;-3.124;2023-02-14T03:02:33;176.85;;;56.55;;
47009;SDS011;59230;54.164;-3.124;2023-02-14T03:05:27;173.85;;;55.38;;
47009;SDS011;59230;54.164;-3.124;2023-02-14T03:07:53;182.82;;;59.17;;
47009;SDS011;59230;54.164;-3.124;2023-02-14T03:10:25;172.32;;;56.25;;
47009;SDS011;59230;54.164;-3.124;2023-02-14T03:18:52;175.05;;;56.78;;
47009;SDS011;59230;54.164;-3.124;2023-02-14T03:24:30;183.93;;;58.70;;
47009;SDS011;59230;54.164;-3.124;2023-02-14T03:27:21;199.20;;;59.45;;
47009;SDS011;59230;54.164;-3.124;2023-02-14T03:29:52;201.73;;;61.65;;
47009;SDS011;59230;54.164;-3.124;2023-02-14T03:32:38;204.85;;;61.13;;
47009;SDS011;59230;54.164;-3.124;2023-02-14T03:35:24;200.10;;;60.72;;
47009;SDS011;59230;54.164;-3.124;2023-02-14T03:43:30;254.93;;;70.43;;
47009;SDS011;59230;54.164;-3.124;2023-02-14T03:46:17;244.07;;;63.65;;
47009;SDS011;59230;54.164;-3.124;2023-02-14T03:48:51;223.27;;;66.00;;
47009;SDS011;59230;54.164;-3.124;2023-02-14T03:51:19;230.45;;;67.18;;
47009;SDS011;59230;54.164;-3.124;2023-02-14T03:53:52;261.42;;;69.05;;
47009;SDS011;59230;54.164;-3.124;2023-02-14T03:56:43;248.90;;;69.47;;
47009;SDS011;59230;54.164;-3.124;2023-02-14T03:59:12;247.05;;;67.07;;
47009;SDS011;59230;54.164;-3.124;2023-02-14T04:01:55;250.23;;;70.82;;
47009;SDS011;59230;54.164;-3.124;2023-02-14T04:04:26;270.77;;;71.55;;
47009;SDS011;59230;54.164;-3.124;2023-02-14T04:06:53;262.88;;;68.78;;
47009;SDS011;59230;54.164;-3.124;2023-02-14T04:09:19;245.98;;;70.18;;
47009;SDS011;59230;54.164;-3.124;2023-02-14T04:11:45;242.77;;;68.07;;
47009;SDS011;59230;54.164;-3.124;2023-02-14T04:14:15;253.60;;;73.03;;
47009;SDS011;59230;54.164;-3.124;2023-02-14T04:16:43;218.07;;;66.43;;
47009;SDS011;59230;54.164;-3.124;2023-02-14T04:19:27;228.90;;;66.45;;
47009;SDS011;59230;54.164;-3.124;2023-02-14T04:21:52;265.77;;;70.68;;
47009;SDS011;59230;54.164;-3.124;2023-02-14T04:24:18;253.75;;;74.03;;
47009;SDS011;59230;54.164;-3.124;2023-02-14T04:26:46;246.27;;;70.13;;
47009;SDS011;59230;54.164;-3.124;2023-02-14T04:29:31;242.00;;;67.50;;
47009;SDS011;59230;54.164;-3.124;2023-02-14T04:31:57;233.10;;;66.35;;
47009;SDS011;59230;54.164;-3.124;2023-02-14T04:34:24;245.75;;;68.55;;
47009;SDS011;59230;54.164;-3.124;2023-02-14T04:36:53;226.45;;;63.58;;
47009;SDS011;59230;54.164;-3.124;2023-02-14T04:39:20;266.05;;;68.72;;
47009;SDS011;59230;54.164;-3.124;2023-02-14T04:41:47;263.95;;;69.00;;
47009;SDS011;59230;54.164;-3.124;2023-02-14T04:44:15;229.27;;;68.00;;
47009;SDS011;59230;54.164;-3.124;2023-02-14T04:46:42;241.60;;;66.75;;
47009;SDS011;59230;54.164;-3.124;2023-02-14T04:49:10;244.23;;;65.85;;
47009;SDS011;59230;54.164;-3.124;2023-02-14T04:51:36;229.82;;;66.57;;
47009;SDS011;59230;54.164;-3.124;2023-02-14T04:54:04;224.43;;;66.07;;
47009;SDS011;59230;54.164;-3.124;2023-02-14T04:56:30;239.15;;;67.45;;
47009;SDS011;59230;54.164;-3.124;2023-02-14T04:58:56;246.05;;;67.25;;
47009;SDS011;59230;54.164;-3.124;2023-02-14T05:01:22;255.45;;;72.43;;
47009;SDS011;59230;54.164;-3.124;2023-02-14T05:03:48;278.38;;;71.65;;
47009;SDS011;59230;54.164;-3.124;2023-02-14T05:06:14;252.20;;;69.45;;
47009;SDS011;59230;54.164;-3.124;2023-02-14T05:08:40;267.55;;;71.00;;
47009;SDS011;59230;54.164;-3.124;2023-02-14T05:11:06;275.15;;;69.25;;
47009;SDS011;59230;54.164;-3.124;2023-02-14T05:13:31;270.75;;;71.20;;
47009;SDS011;59230;54.164;-3.124;2023-02-14T05:15:58;257.05;;;68.05;;
47009;SDS011;59230;54.164;-3.124;2023-02-14T05:18:24;213.68;;;62.40;;
47009;SDS011;59230;54.164;-3.124;2023-02-14T05:20:51;197.32;;;61.10;;
47009;SDS011;59230;54.164;-3.124;2023-02-14T05:23:18;240.40;;;64.70;;
47009;SDS011;59230;54.164;-3.124;2023-02-14T05:25:49;273.58;;;66.47;;
47009;SDS011;59230;54.164;-3.124;2023-02-14T05:28:18;251.23;;;67.20;;
47009;SDS011;59230;54.164;-3.124;2023-02-14T05:30:45;257.60;;;67.72;;
47009;SDS011;59230;54.164;-3.124;2023-02-14T05:33:11;266.90;;;68.22;;
47009;SDS011;59230;54.164;-3.124;2023-02-14T05:35:38;268.85;;;69.70;;
47009;SDS011;59230;54.164;-3.124;2023-02-14T05:38:03;285.58;;;72.72;;
47009;SDS011;59230;54.164;-3.124;2023-02-14T05:40:31;337.92;;;77.05;;
47009;SDS011;59230;54.164;-3.124;2023-02-14T05:42:58;297.65;;;74.88;;
47009;SDS011;59230;54.164;-3.124;2023-02-14T05:45:25;263.52;;;72.47;;
47009;SDS011;59230;54.164;-3.124;2023-02-14T05:47:51;290.35;;;71.60;;
47009;SDS011;59230;54.164;-3.124;2023-02-14T05:50:17;324.60;;;75.65;;
47009;SDS011;59230;54.164;-3.124;2023-02-14T05:52:43;299.90;;;72.80;;
47009;SDS011;59230;54.164;-3.124;2023-02-14T05:55:09;294.35;;;70.97;;
47009;SDS011;59230;54.164;-3.124;2023-02-14T05:57:38;288.95;;;71.95;;
47009;SDS011;59230;54.164;-3.124;2023-02-14T06:00:04;274.50;;;70.72;;
47009;SDS011;59230;54.164;-3.124;2023-02-14T06:02:33;283.08;;;70.97;;
47009;SDS011;59230;54.164;-3.124;2023-02-14T06:05:00;284.95;;;74.13;;
47009;SDS011;59230;54.164;-3.124;2023-02-14T06:07:28;248.93;;;66.65;;
47009;SDS011;59230;54.164;-3.124;2023-02-14T06:09:55;288.52;;;72.35;;
47009;SDS011;59230;54.164;-3.124;2023-02-14T06:12:22;297.35;;;70.78;;
47009;SDS011;59230;54.164;-3.124;2023-02-14T06:14:48;266.60;;;67.55;;
47009;SDS011;59230;54.164;-3.124;2023-02-14T06:17:15;246.07;;;63.70;;
47009;SDS011;59230;54.164;-3.124;2023-02-14T06:19:43;220.50;;;64.03;;
47009;SDS011;59230;54.164;-3.124;2023-02-14T06:22:10;287.77;;;71.18;;
47009;SDS011;59230;54.164;-3.124;2023-02-14T06:24:35;236.02;;;67.55;;
47009;SDS011;59230;54.164;-3.124;2023-02-14T06:27:01;301.67;;;74.75;;
47009;SDS011;59230;54.164;-3.124;2023-02-14T06:29:27;300.42;;;75.03;;
47009;SDS011;59230;54.164;-3.124;2023-02-14T06:31:53;272.95;;;72.22;;
47009;SDS011;59230;54.164;-3.124;2023-02-14T06:34:19;287.90;;;71.43;;
47009;SDS011;59230;54.164;-3.124;2023-02-14T06:36:47;300.48;;;73.10;;
47009;SDS011;59230;54.164;-3.124;2023-02-14T06:39:14;328.60;;;75.82;;
47009;SDS011;59230;54.164;-3.124;2023-02-14T06:41:40;274.42;;;74.28;;
47009;SDS011;59230;54.164;-3.124;2023-02-14T06:44:06;335.35;;;79.97;;
47009;SDS011;59230;54.164;-3.124;2023-02-14T06:46:32;280.48;;;75.18;;
47009;SDS011;59230;54.164;-3.124;2023-02-14T06:48:58;286.45;;;73.55;;
47009;SDS011;59230;54.164;-3.124;2023-02-14T06:51:23;303.48;;;77.53;;
47009;SDS011;59230;54.164;-3.124;2023-02-14T06:53:50;305.85;;;74.15;;
47009;SDS011;59230;54.164;-3.124;2023-02-14T06:56:15;320.52;;;77.45;;
47009;SDS011;59230;54.164;-3.124;2023-02-14T06:58:41;337.10;;;81.00;;
47009;SDS011;59230;54.164;-3.124;2023-02-14T07:01:08;330.67;;;79.43;;
47009;SDS011;59230;54.164;-3.124;2023-02-14T07:03:33;339.35;;;78.65;;
47009;SDS011;59230;54.164;-3.124;2023-02-14T07:05:59;304.83;;;73.68;;
47009;SDS011;59230;54.164;-3.124;2023-02-14T07:08:24;275.95;;;70.47;;
47009;SDS011;59230;54.164;-3.124;2023-02-14T07:10:53;316.67;;;76.25;;
47009;SDS011;59230;54.164;-3.124;2023-02-14T07:13:20;320.75;;;77.05;;
47009;SDS011;59230;54.164;-3.124;2023-02-14T07:15:46;346.92;;;77.50;;
47009;SDS011;59230;54.164;-3.124;2023-02-14T07:18:11;388.52;;;78.28;;
47009;SDS011;59230;54.164;-3.124;2023-02-14T07:20:38;325.10;;;76.38;;
47009;SDS011;59230;54.164;-3.124;2023-02-14T07:23:03;318.17;;;74.15;;
47009;SDS011;59230;54.164;-3.124;2023-02-14T07:25:29;332.70;;;75.53;;
47009;SDS011;59230;54.164;-3.124;2023-02-14T07:27:54;340.20;;;73.65;;
47009;SDS011;59230;54.164;-3.124;2023-02-14T07:30:22;352.13;;;74.00;;
47009;SDS011;59230;54.164;-3.124;2023-02-14T07:32:47;372.15;;;75.30;;
47009;SDS011;59230;54.164;-3.124;2023-02-14T07:35:15;306.30;;;68.90;;
47009;SDS011;59230;54.164;-3.124;2023-02-14T07:37:41;316.40;;;74.25;;
47009;SDS011;59230;54.164;-3.124;2023-02-14T07:40:07;334.70;;;70.63;;
47009;SDS011;59230;54.164;-3.124;2023-02-14T07:42:36;327.27;;;71.63;;
47009;SDS011;59230;54.164;-3.124;2023-02-14T07:45:04;264.73;;;68.75;;
47009;SDS011;59230;54.164;-3.124;2023-02-14T07:47:32;323.02;;;69.63;;
47009;SDS011;59230;54.164;-3.124;2023-02-14T07:49:58;282.77;;;67.80;;
47009;SDS011;59230;54.164;-3.124;2023-02-14T07:52:25;332.77;;;73.00;;
47009;SDS011;59230;54.164;-3.124;2023-02-14T07:54:52;306.63;;;70.18;;
47009;SDS011;59230;54.164;-3.124;2023-02-14T07:57:17;294.38;;;72.15;;
47009;SDS011;59230;54.164;-3.124;2023-02-14T07:59:47;269.42;;;67.60;;
47009;SDS011;59230;54.164;-3.124;2023-02-14T08:02:15;353.65;;;72.38;;
47009;SDS011;59230;54.164;-3.124;2023-02-14T08:04:49;307.17;;;75.22;;
47009;SDS011;59230;54.164;-3.124;2023-02-14T08:07:21;341.60;;;81.15;;
47009;SDS011;59230;54.164;-3.124;2023-02-14T08:09:46;319.25;;;78.07;;
47009;SDS011;59230;54.164;-3.124;2023-02-14T08:12:13;352.27;;;79.38;;
47009;SDS011;59230;54.164;-3.124;2023-02-14T08:14:59;309.55;;;73.90;;
47009;SDS011;59230;54.164;-3.124;2023-02-14T08:17:48;327.70;;;77.80;;
47009;SDS011;59230;54.164;-3.124;2023-02-14T08:20:21;365.40;;;83.03;;
47009;SDS011;59230;54.164;-3.124;2023-02-14T08:25:12;348.25;;;80.80;;
47009;SDS011;59230;54.164;-3.124;2023-02-14T08:27:37;314.48;;;86.03;;
47009;SDS011;59230;54.164;-3.124;2023-02-14T08:30:03;299.55;;;83.45;;
47009;SDS011;59230;54.164;-3.124;2023-02-14T08:32:30;326.40;;;84.95;;
47009;SDS011;59230;54.164;-3.124;2023-02-14T08:34:58;303.65;;;83.57;;
47009;SDS011;59230;54.164;-3.124;2023-02-14T08:37:26;327.95;;;85.63;;
47009;SDS011;59230;54.164;-3.124;2023-02-14T08:39:52;321.33;;;85.78;;
47009;SDS011;59230;54.164;-3.124;2023-02-14T08:42:18;320.08;;;85.43;;
47009;SDS011;59230;54.164;-3.124;2023-02-14T08:44:44;303.35;;;87.60;;
47009;SDS011;59230;54.164;-3.124;2023-02-14T08:47:12;254.90;;;81.88;;
47009;SDS011;59230;54.164;-3.124;2023-02-14T08:49:39;251.77;;;80.63;;
47009;SDS011;59230;54.164;-3.124;2023-02-14T08:52:10;211.55;;;74.72;;
47009;SDS011;59230;54.164;-3.124;2023-02-14T08:54:36;225.75;;;80.47;;
47009;SDS011;59230;54.164;-3.124;2023-02-14T08:57:03;283.45;;;81.82;;
47009;SDS011;59230;54.164;-3.124;2023-02-14T08:59:29;233.10;;;78.72;;
47009;SDS011;59230;54.164;-3.124;2023-02-14T09:01:54;267.05;;;83.45;;
47009;SDS011;59230;54.164;-3.124;2023-02-14T09:04:20;258.13;;;90.53;;
47009;SDS011;59230;54.164;-3.124;2023-02-14T09:06:46;256.10;;;87.78;;
47009;SDS011;59230;54.164;-3.124;2023-02-14T09:09:13;231.27;;;80.45;;
47009;SDS011;59230;54.164;-3.124;2023-02-14T09:11:39;210.63;;;79.22;;
47009;SDS011;59230;54.164;-3.124;2023-02-14T09:14:05;252.05;;;83.60;;
47009;SDS011;59230;54.164;-3.124;2023-02-14T09:16:31;219.68;;;78.28;;
47009;SDS011;59230;54.164;-3.124;2023-02-14T09:18:57;193.60;;;70.80;;
47009;SDS011;59230;54.164;-3.124;2023-02-14T09:21:26;223.23;;;79.57;;
47009;SDS011;59230;54.164;-3.124;2023-02-14T09:23:55;207.63;;;75.55;;
47009;SDS011;59230;54.164;-3.124;2023-02-14T09:26:22;193.85;;;70.90;;
47009;SDS011;59230;54.164;-3.124;2023-02-14T09:28:49;185.85;;;70.95;;
47009;SDS011;59230;54.164;-3.124;2023-02-14T09:31:15;202.50;;;73.43;;
47009;SDS011;59230;54.164;-3.124;2023-02-14T09:33:44;169.10;;;69.63;;
47009;SDS011;59230;54.164;-3.124;2023-02-14T09:36:11;160.77;;;64.78;;
47009;SDS011;59230;54.164;-3.124;2023-02-14T09:38:40;156.02;;;65.18;;
47009;SDS011;59230;54.164;-3.124;2023-02-14T09:46:58;159.30;;;67.72;;
47009;SDS011;59230;54.164;-3.124;2023-02-14T09:49:33;158.85;;;67.38;;
47009;SDS011;59230;54.164;-3.124;2023-02-14T09:52:01;145.77;;;64.28;;
47009;SDS011;59230;54.164;-3.124;2023-02-14T09:54:28;147.90;;;63.33;;
47009;SDS011;59230;54.164;-3.124;2023-02-14T09:59:43;151.20;;;64.38;;
47009;SDS011;59230;54.164;-3.124;2023-02-14T10:04:53;161.25;;;64.70;;
47009;SDS011;59230;54.164;-3.124;2023-02-14T10:13:06;158.52;;;66.38;;
47009;SDS011;59230;54.164;-3.124;2023-02-14T10:15:56;161.27;;;64.53;;
47009;SDS011;59230;54.164;-3.124;2023-02-14T10:18:26;151.63;;;62.78;;
47009;SDS011;59230;54.164;-3.124;2023-02-14T10:20:57;146.68;;;64.70;;
47009;SDS011;59230;54.164;-3.124;2023-02-14T10:23:26;140.52;;;62.15;;
47009;SDS011;59230;54.164;-3.124;2023-02-14T10:26:06;152.70;;;65.47;;
47009;SDS011;59230;54.164;-3.124;2023-02-14T10:28:36;159.77;;;67.03;;
47009;SDS011;59230;54.164;-3.124;2023-02-14T10:36:24;150.95;;;64.88;;
47009;SDS011;59230;54.164;-3.124;2023-02-14T10:39:50;154.23;;;68.32;;
47009;SDS011;59230;54.164;-3.124;2023-02-14T10:42:03;169.73;;;69.57;;
47009;SDS011;59230;54.164;-3.124;2023-02-14T10:47:08;157.15;;;66.22;;
47009;SDS011;59230;54.164;-3.124;2023-02-14T10:49:53;151.60;;;66.18;;
47009;SDS011;59230;54.164;-3.124;2023-02-14T10:52:28;151.38;;;65.53;;
47009;SDS011;59230;54.164;-3.124;2023-02-14T10:54:59;150.15;;;64.93;;
47009;SDS011;59230;54.164;-3.124;2023-02-14T10:57:39;159.15;;;66.32;;
47009;SDS011;59230;54.164;-3.124;2023-02-14T11:00:15;143.10;;;65.40;;
47009;SDS011;59230;54.164;-3.124;2023-02-14T11:02:45;149.45;;;65.40;;
47009;SDS011;59230;54.164;-3.124;2023-02-14T11:05:22;145.27;;;63.70;;
47009;SDS011;59230;54.164;-3.124;2023-02-14T11:07:51;149.25;;;66.82;;
47009;SDS011;59230;54.164;-3.124;2023-02-14T11:10:18;140.27;;;62.70;;
47009;SDS011;59230;54.164;-3.124;2023-02-14T11:12:44;143.07;;;66.45;;
47009;SDS011;59230;54.164;-3.124;2023-02-14T11:15:22;153.82;;;68.00;;
47009;SDS011;59230;54.164;-3.124;2023-02-14T11:17:48;142.10;;;63.35;;
47009;SDS011;59230;54.164;-3.124;2023-02-14T11:20:21;146.02;;;64.65;;
47009;SDS011;59230;54.164;-3.124;2023-02-14T11:22:51;127.70;;;59.83;;
47009;SDS011;59230;54.164;-3.124;2023-02-14T11:25:25;133.45;;;62.58;;
47009;SDS011;59230;54.164;-3.124;2023-02-14T11:27:59;146.63;;;62.78;;
47009;SDS011;59230;54.164;-3.124;2023-02-14T11:30:34;135.32;;;62.03;;
47009;SDS011;59230;54.164;-3.124;2023-02-14T11:33:04;133.48;;;60.45;;
47009;SDS011;59230;54.164;-3.124;2023-02-14T11:35:31;129.23;;;60.95;;
47009;SDS011;59230;54.164;-3.124;2023-02-14T11:38:02;123.45;;;56.83;;
47009;SDS011;59230;54.164;-3.124;2023-02-14T11:40:38;107.10;;;52.10;;
47009;SDS011;59230;54.164;-3.124;2023-02-14T11:45:40;97.90;;;47.05;;
47009;SDS011;59230;54.164;-3.124;2023-02-14T11:48:25;93.95;;;48.90;;
47009;SDS011;59230;54.164;-3.124;2023-02-14T11:51:07;97.55;;;49.90;;
47009;SDS011;59230;54.164;-3.124;2023-02-14T11:56:17;102.43;;;51.10;;
47009;SDS011;59230;54.164;-3.124;2023-02-14T12:01:32;103.47;;;49.35;;
47009;SDS011;59230;54.164;-3.124;2023-02-14T12:04:21;102.90;;;50.70;;
47009;SDS011;59230;54.164;-3.124;2023-02-14T12:06:46;97.50;;;46.50;;
47009;SDS011;59230;54.164;-3.124;2023-02-14T12:12:01;90.80;;;46.65;;
47009;SDS011;59230;54.164;-3.124;2023-02-14T12:14:33;88.45;;;45.72;;
47009;SDS011;59230;54.164;-3.124;2023-02-14T12:22:08;88.37;;;45.83;;
47009;SDS011;59230;54.164;-3.124;2023-02-14T12:24:47;85.78;;;44.13;;
47009;SDS011;59230;54.164;-3.124;2023-02-14T12:27:41;77.85;;;42.38;;
47009;SDS011;59230;54.164;-3.124;2023-02-14T12:30:16;84.07;;;42.58;;
47009;SDS011;59230;54.164;-3.124;2023-02-14T12:32:54;105.57;;;50.55;;
47009;SDS011;59230;54.164;-3.124;2023-02-14T12:54:57;86.40;;;43.28;;
47009;SDS011;59230;54.164;-3.124;2023-02-14T12:57:48;77.32;;;41.20;;
47009;SDS011;59230;54.164;-3.124;2023-02-14T13:00:50;83.82;;;44.33;;
47009;SDS011;59230;54.164;-3.124;2023-02-14T13:14:56;70.93;;;37.55;;
47009;SDS011;59230;54.164;-3.124;2023-02-14T13:17:42;74.28;;;39.33;;
47009;SDS011;59230;54.164;-3.124;2023-02-14T13:23:11;72.95;;;39.90;;
47009;SDS011;59230;54.164;-3.124;2023-02-14T13:25:54;66.35;;;37.17;;
47009;SDS011;59230;54.164;-3.124;2023-02-14T13:28:26;66.45;;;38.03;;
47009;SDS011;59230;54.164;-3.124;2023-02-14T13:30:54;73.45;;;39.38;;
47009;SDS011;59230;54.164;-3.124;2023-02-14T13:33:24;64.78;;;38.28;;
47009;SDS011;59230;54.164;-3.124;2023-02-14T13:35:57;67.95;;;37.17;;
47009;SDS011;59230;54.164;-3.124;2023-02-14T13:38:26;70.53;;;38.58;;
47009;SDS011;59230;54.164;-3.124;2023-02-14T13:40:56;69.38;;;36.38;;
47009;SDS011;59230;54.164;-3.124;2023-02-14T13:46:58;67.35;;;38.17;;
47009;SDS011;59230;54.164;-3.124;2023-02-14T13:51:52;64.22;;;37.75;;
47009;SDS011;59230;54.164;-3.124;2023-02-14T13:56:56;74.72;;;37.53;;
47009;SDS011;59230;54.164;-3.124;2023-02-14T13:59:31;75.28;;;37.42;;
47009;SDS011;59230;54.164;-3.124;2023-02-14T14:04:54;66.85;;;36.60;;
47009;SDS011;59230;54.164;-3.124;2023-02-14T14:07:22;72.85;;;37.95;;
47009;SDS011;59230;54.164;-3.124;2023-02-14T14:09:52;70.65;;;38.60;;
47009;SDS011;59230;54.164;-3.124;2023-02-14T14:22:46;66.53;;;38.03;;
47009;SDS011;59230;54.164;-3.124;2023-02-14T14:25:14;71.72;;;38.33;;
47009;SDS011;59230;54.164;-3.124;2023-02-14T14:27:57;67.47;;;37.60;;
47009;SDS011;59230;54.164;-3.124;2023-02-14T14:30:28;63.30;;;37.38;;
47009;SDS011;59230;54.164;-3.124;2023-02-14T14:35:37;63.90;;;36.40;;
47009;SDS011;59230;54.164;-3.124;2023-02-14T14:38:03;66.93;;;36.67;;
47009;SDS011;59230;54.164;-3.124;2023-02-14T14:40:33;66.75;;;36.28;;
47009;SDS011;59230;54.164;-3.124;2023-02-14T14:43:05;71.80;;;39.30;;
47009;SDS011;59230;54.164;-3.124;2023-02-14T14:45:38;73.72;;;39.40;;
47009;SDS011;59230;54.164;-3.124;2023-02-14T14:48:25;78.88;;;39.17;;
47009;SDS011;59230;54.164;-3.124;2023-02-14T14:50:53;71.60;;;40.00;;
47009;SDS011;59230;54.164;-3.124;2023-02-14T14:55:57;86.40;;;42.38;;
47009;SDS011;59230;54.164;-3.124;2023-02-14T14:58:30;83.00;;;41.45;;
47009;SDS011;59230;54.164;-3.124;2023-02-14T15:00:58;63.85;;;36.28;;
47009;SDS011;59230;54.164;-3.124;2023-02-14T15:03:24;64.50;;;37.10;;
47009;SDS011;59230;54.164;-3.124;2023-02-14T15:06:01;73.85;;;41.47;;
47009;SDS011;59230;54.164;-3.124;2023-02-14T15:08:30;78.90;;;42.35;;
47009;SDS011;59230;54.164;-3.124;2023-02-14T15:16:19;73.18;;;39.00;;
47009;SDS011;59230;54.164;-3.124;2023-02-14T15:18:52;72.72;;;38.60;;
47009;SDS011;59230;54.164;-3.124;2023-02-14T15:21:25;69.18;;;39.78;;
47009;SDS011;59230;54.164;-3.124;2023-02-14T15:23:54;67.15;;;38.63;;
47009;SDS011;59230;54.164;-3.124;2023-02-14T15:26:28;72.05;;;39.00;;
47009;SDS011;59230;54.164;-3.124;2023-02-14T15:28:59;64.95;;;37.38;;
47009;SDS011;59230;54.164;-3.124;2023-02-14T15:31:32;70.30;;;38.17;;
47009;SDS011;59230;54.164;-3.124;2023-02-14T15:34:02;64.90;;;37.22;;
47009;SDS011;59230;54.164;-3.124;2023-02-14T15:36:29;69.03;;;36.35;;
47009;SDS011;59230;54.164;-3.124;2023-02-14T15:39:03;70.35;;;39.75;;
47009;SDS011;59230;54.164;-3.124;2023-02-14T15:41:31;64.63;;;35.83;;
47009;SDS011;59230;54.164;-3.124;2023-02-14T15:43:59;63.65;;;35.72;;
47009;SDS011;59230;54.164;-3.124;2023-02-14T15:49:07;69.85;;;38.63;;
47009;SDS011;59230;54.164;-3.124;2023-02-14T15:51:34;63.38;;;36.03;;
47009;SDS011;59230;54.164;-3.124;2023-02-14T15:54:03;61.40;;;35.08;;
47009;SDS011;59230;54.164;-3.124;2023-02-14T15:56:43;64.75;;;35.17;;
47009;SDS011;59230;54.164;-3.124;2023-02-14T15:59:16;70.97;;;36.05;;
47009;SDS011;59230;54.164;-3.124;2023-02-14T16:05:01;61.00;;;36.78;;
47009;SDS011;59230;54.164;-3.124;2023-02-14T16:07:55;64.35;;;36.75;;
47009;SDS011;59230;54.164;-3.124;2023-02-14T16:10:31;66.28;;;36.63;;
47009;SDS011;59230;54.164;-3.124;2023-02-14T16:15:32;63.70;;;35.75;;
47009;SDS011;59230;54.164;-3.124;2023-02-14T16:18:14;63.58;;;35.33;;
47009;SDS011;59230;54.164;-3.124;2023-02-14T16:20:43;64.03;;;35.35;;
47009;SDS011;59230;54.164;-3.124;2023-02-14T16:23:24;67.40;;;34.30;;
47009;SDS011;59230;54.164;-3.124;2023-02-14T16:25:52;64.88;;;35.65;;
47009;SDS011;59230;54.164;-3.124;2023-02-14T16:28:29;73.97;;;42.28;;
47009;SDS011;59230;54.164;-3.124;2023-02-14T16:30:56;145.48;;;84.85;;
47009;SDS011;59230;54.164;-3.124;2023-02-14T16:33:35;129.88;;;73.07;;
47009;SDS011;59230;54.164;-3.124;2023-02-14T16:38:47;120.20;;;66.60;;
47009;SDS011;59230;54.164;-3.124;2023-02-14T16:41:21;104.65;;;56.05;;
47009;SDS011;59230;54.164;-3.124;2023-02-14T16:43:56;85.82;;;48.63;;
47009;SDS011;59230;54.164;-3.124;2023-02-14T16:46:27;85.00;;;50.85;;
47009;SDS011;59230;54.164;-3.124;2023-02-14T16:48:55;82.07;;;45.60;;
47009;SDS011;59230;54.164;-3.124;2023-02-14T16:51:25;125.55;;;52.38;;
47009;SDS011;59230;54.164;-3.124;2023-02-14T16:53:54;82.05;;;42.50;;
47009;SDS011;59230;54.164;-3.124;2023-02-14T16:56:32;66.10;;;38.60;;
47009;SDS011;59230;54.164;-3.124;2023-02-14T16:59:02;84.63;;;45.67;;
47009;SDS011;59230;54.164;-3.124;2023-02-14T17:01:28;121.35;;;60.17;;
47009;SDS011;59230;54.164;-3.124;2023-02-14T17:03:58;85.53;;;46.40;;
47009;SDS011;59230;54.164;-3.124;2023-02-14T17:06:26;69.75;;;37.95;;